^^
Meteo Knjazevac Station Historical Data
Daily Summary for August 15, 2021 Units:  Both    English   Metric
Daily Weekly Monthly Yearly Custom
  High: Low: Average:
Temperature: 43.5 °F /  6.4 °C 43 °F /  6.1 °C 43.2 °F /  6.2 °C
Dew Point: 43 °F /  6.1 °C 41.1 °F /  5.1 °C 42 °F /  5.6 °C
Humidity: 98% 93% 96%
Wind Speed: 8mph /  12.9km/h - 6.6mph /  10.6km/h
Wind Gust: 21mph /  33.8km/h - -
Wind- - NNW
Pressure: 30.21 in /  1022.9 hPa 30.19 in /  1022.2 hPa -
Precipitation: 0.01 in /  0.25 mm    
Historical Graphs
 
 
Tabular Data for August 15, 2021
Time Temperature Dew Point Pressure Wind Wind Speed Wind Gust Humidity Rainfall Rate (Hourly) solar Conditions
00:00 43 °F /  6.1 °C 41.1 °F /  5.1 °C 30.21in /  1022.9hPa North 7mph /  11.3km/h 12mph /  19.3km/h 93% 0.00in /  0mm 0 W/m2
00:10 43 °F /  6.1 °C 41.4 °F /  5.2 °C 30.21in /  1022.9hPa North 5mph /  8km/h 12mph /  19.3km/h 94% 0.00in /  0mm 0 W/m2
00:20 43 °F /  6.1 °C 41.1 °F /  5.1 °C 30.21in /  1022.9hPa North 5mph /  8km/h 12mph /  19.3km/h 93% 0.00in /  0mm 0 W/m2
00:30 43 °F /  6.1 °C 41.4 °F /  5.2 °C 30.21in /  1022.9hPa North 8mph /  12.9km/h 13mph /  20.9km/h 94% 0.00in /  0mm 0 W/m2
00:40 43.2 °F /  6.2 °C 41.6 °F /  5.3 °C 30.21in /  1022.9hPa North 6mph /  9.7km/h 12mph /  19.3km/h 94% 0.00in /  0mm 0 W/m2
00:50 43.1 °F /  6.2 °C 41.4 °F /  5.2 °C 30.21in /  1022.9hPa North 6mph /  9.7km/h 12mph /  19.3km/h 94% 0.00in /  0mm 0 W/m2
01:00 43.2 °F /  6.2 °C 41.6 °F /  5.3 °C 30.21in /  1022.9hPa North 5mph /  8km/h 14mph /  22.5km/h 94% 0.00in /  0mm 0 W/m2
01:10 43.2 °F /  6.2 °C 41.8 °F /  5.4 °C 30.21in /  1022.9hPa North 7mph /  11.3km/h 14mph /  22.5km/h 95% 0.00in /  0mm 0 W/m2
01:20 43.2 °F /  6.2 °C 41.8 °F /  5.4 °C 30.21in /  1022.9hPa North 7mph /  11.3km/h 13mph /  20.9km/h 95% 0.00in /  0mm 0 W/m2
01:30 43.2 °F /  6.2 °C 41.8 °F /  5.4 °C 30.21in /  1022.9hPa North 6mph /  9.7km/h 15mph /  24.1km/h 95% 0.00in /  0mm 0 W/m2
01:40 43.2 °F /  6.2 °C 42.1 °F /  5.6 °C 30.21in /  1022.9hPa North 7mph /  11.3km/h 15mph /  24.1km/h 96% 0.00in /  0mm 0 W/m2
01:50 43.2 °F /  6.2 °C 42.1 °F /  5.6 °C 30.20in /  1022.6hPa NNW 7mph /  11.3km/h 16mph /  25.7km/h 96% 0.00in /  0mm 0 W/m2
02:00 43.2 °F /  6.2 °C 42.1 °F /  5.6 °C 30.20in /  1022.6hPa North 7mph /  11.3km/h 15mph /  24.1km/h 96% 0.00in /  0mm 0 W/m2
02:10 43.2 °F /  6.2 °C 42.6 °F /  5.9 °C 30.20in /  1022.6hPa North 7mph /  11.3km/h 14mph /  22.5km/h 98% 0.00in /  0mm 0 W/m2
02:20 43.2 °F /  6.2 °C 42.6 °F /  5.9 °C 30.20in /  1022.6hPa North 7mph /  11.3km/h 21mph /  33.8km/h 98% 0.00in /  0mm 0 W/m2
02:30 43.2 °F /  6.2 °C 42.6 °F /  5.9 °C 30.20in /  1022.6hPa North 7mph /  11.3km/h 14mph /  22.5km/h 98% 0.00in /  0mm 0 W/m2
02:40 43.2 °F /  6.2 °C 42.6 °F /  5.9 °C 30.20in /  1022.6hPa North 6mph /  9.7km/h 13mph /  20.9km/h 98% 0.00in /  0mm 0 W/m2
02:50 43.2 °F /  6.2 °C 42.7 °F /  5.9 °C 30.19in /  1022.2hPa North 7mph /  11.3km/h 15mph /  24.1km/h 98% 0.00in /  0mm 0 W/m2
03:00 43.3 °F /  6.3 °C 42.8 °F /  6 °C 30.19in /  1022.2hPa North 6mph /  9.7km/h 15mph /  24.1km/h 98% 0.00in /  0mm 0 W/m2
03:10 43.5 °F /  6.4 °C 43 °F /  6.1 °C 30.19in /  1022.2hPa North 7mph /  11.3km/h 16mph /  25.7km/h 98% 0.00in /  0mm 0 W/m2
03:20 43.3 °F /  6.3 °C 42.8 °F /  6 °C 30.19in /  1022.2hPa North 8mph /  12.9km/h 13mph /  20.9km/h 98% 0.01in /  0.25mm 0 W/m2
Knjazevac, Serbia
Compliments of Weather Underground - 2 mb